sensor_id;sensor_type;location;lat;lon;timestamp;pressure;altitude;pressure_sealevel;temperature;humidity
76858;BME280;65830;0.000;0.000;2024-03-06T00:02:11;99556.44;;;8.51;100.00
76858;BME280;65830;0.000;0.000;2024-03-06T00:04:36;99556.31;;;8.53;100.00
76858;BME280;65830;0.000;0.000;2024-03-06T00:07:02;99558.13;;;8.52;100.00
76858;BME280;65830;0.000;0.000;2024-03-06T00:09:28;99559.41;;;8.58;100.00
76858;BME280;65830;0.000;0.000;2024-03-06T00:11:54;99553.22;;;8.48;100.00
76858;BME280;65830;0.000;0.000;2024-03-06T00:14:20;99554.19;;;8.47;100.00
76858;BME280;65830;0.000;0.000;2024-03-06T00:16:48;99549.03;;;8.45;100.00
76858;BME280;65830;0.000;0.000;2024-03-06T00:19:18;99551.41;;;8.48;100.00
76858;BME280;65830;0.000;0.000;2024-03-06T00:21:44;99554.06;;;8.48;100.00
76858;BME280;65830;0.000;0.000;2024-03-06T00:24:13;99555.72;;;8.49;100.00
76858;BME280;65830;0.000;0.000;2024-03-06T00:26:40;99556.44;;;8.51;100.00
76858;BME280;65830;0.000;0.000;2024-03-06T00:29:05;99554.06;;;8.48;100.00
76858;BME280;65830;0.000;0.000;2024-03-06T00:31:31;99564.97;;;8.55;100.00
76858;BME280;65830;0.000;0.000;2024-03-06T00:33:56;99567.47;;;8.57;100.00
76858;BME280;65830;0.000;0.000;2024-03-06T00:36:22;99564.69;;;8.58;100.00
76858;BME280;65830;0.000;0.000;2024-03-06T00:38:48;99562.31;;;8.55;100.00
76858;BME280;65830;0.000;0.000;2024-03-06T00:41:13;99568.91;;;8.61;100.00
76858;BME280;65830;0.000;0.000;2024-03-06T00:43:39;99575.13;;;9.02;100.00
76858;BME280;65830;0.000;0.000;2024-03-06T00:46:05;99579.03;;;9.28;100.00
76858;BME280;65830;0.000;0.000;2024-03-06T00:48:30;99586.31;;;9.36;100.00
76858;BME280;65830;0.000;0.000;2024-03-06T00:50:56;99579.78;;;9.40;100.00
76858;BME280;65830;0.000;0.000;2024-03-06T00:53:21;99587.72;;;9.40;100.00
76858;BME280;65830;0.000;0.000;2024-03-06T00:55:47;99581.28;;;9.33;100.00
76858;BME280;65830;0.000;0.000;2024-03-06T00:58:12;99589.13;;;9.13;100.00
76858;BME280;65830;0.000;0.000;2024-03-06T01:00:38;99594.94;;;9.07;100.00
76858;BME280;65830;0.000;0.000;2024-03-06T01:03:04;99592.03;;;9.10;100.00
76858;BME280;65830;0.000;0.000;2024-03-06T01:05:30;99591.50;;;9.17;100.00
76858;BME280;65830;0.000;0.000;2024-03-06T01:07:55;99583.88;;;9.23;100.00
76858;BME280;65830;0.000;0.000;2024-03-06T01:10:22;99588.69;;;9.08;100.00
76858;BME280;65830;0.000;0.000;2024-03-06T01:12:48;99584.56;;;9.25;100.00
76858;BME280;65830;0.000;0.000;2024-03-06T01:15:13;99581.50;;;9.20;100.00
76858;BME280;65830;0.000;0.000;2024-03-06T01:17:39;99581.44;;;9.10;100.00
76858;BME280;65830;0.000;0.000;2024-03-06T01:20:04;99593.56;;;9.13;100.00
76858;BME280;65830;0.000;0.000;2024-03-06T01:22:32;99584.13;;;8.89;100.00
76858;BME280;65830;0.000;0.000;2024-03-06T01:24:57;99591.56;;;8.74;100.00
76858;BME280;65830;0.000;0.000;2024-03-06T01:27:23;99588.03;;;8.74;100.00
76858;BME280;65830;0.000;0.000;2024-03-06T01:29:48;99580.91;;;8.65;100.00
76858;BME280;65830;0.000;0.000;2024-03-06T01:32:14;99597.47;;;8.88;100.00
76858;BME280;65830;0.000;0.000;2024-03-06T01:34:39;99597.56;;;8.77;100.00
76858;BME280;65830;0.000;0.000;2024-03-06T01:37:05;99593.72;;;8.69;100.00
76858;BME280;65830;0.000;0.000;2024-03-06T01:39:30;99606.38;;;8.66;100.00
76858;BME280;65830;0.000;0.000;2024-03-06T01:41:56;99608.69;;;8.59;100.00
76858;BME280;65830;0.000;0.000;2024-03-06T01:44:21;99605.22;;;8.59;100.00
76858;BME280;65830;0.000;0.000;2024-03-06T01:46:47;99604.06;;;8.72;100.00
76858;BME280;65830;0.000;0.000;2024-03-06T01:49:13;99596.63;;;8.87;100.00
76858;BME280;65830;0.000;0.000;2024-03-06T01:51:40;99607.34;;;8.86;100.00
76858;BME280;65830;0.000;0.000;2024-03-06T01:54:06;99602.19;;;8.84;100.00
76858;BME280;65830;0.000;0.000;2024-03-06T01:56:32;99600.09;;;8.88;100.00
76858;BME280;65830;0.000;0.000;2024-03-06T01:58:59;99603.28;;;8.82;100.00
76858;BME280;65830;0.000;0.000;2024-03-06T02:01:25;99599.97;;;9.10;100.00
76858;BME280;65830;0.000;0.000;2024-03-06T02:03:51;99600.94;;;9.09;100.00
76858;BME280;65830;0.000;0.000;2024-03-06T02:06:16;99599.97;;;9.10;100.00
76858;BME280;65830;0.000;0.000;2024-03-06T02:08:45;99603.28;;;9.03;100.00
76858;BME280;65830;0.000;0.000;2024-03-06T02:11:10;99607.66;;;9.13;100.00
76858;BME280;65830;0.000;0.000;2024-03-06T02:13:36;99607.94;;;9.10;100.00
76858;BME280;65830;0.000;0.000;2024-03-06T02:16:02;99609.22;;;9.16;100.00
76858;BME280;65830;0.000;0.000;2024-03-06T02:18:28;99607.84;;;9.22;100.00
76858;BME280;65830;0.000;0.000;2024-03-06T02:20:53;99613.31;;;9.30;100.00
76858;BME280;65830;0.000;0.000;2024-03-06T02:23:18;99608.81;;;9.21;100.00
76858;BME280;65830;0.000;0.000;2024-03-06T02:25:46;99605.63;;;8.96;100.00
76858;BME280;65830;0.000;0.000;2024-03-06T02:28:12;99607.94;;;8.89;100.00
76858;BME280;65830;0.000;0.000;2024-03-06T02:30:38;99608.97;;;8.98;100.00
76858;BME280;65830;0.000;0.000;2024-03-06T02:33:03;99607.84;;;8.80;100.00
76858;BME280;65830;0.000;0.000;2024-03-06T02:35:29;99609.03;;;8.87;100.00
76858;BME280;65830;0.000;0.000;2024-03-06T02:37:55;99611.91;;;8.84;100.00
76858;BME280;65830;0.000;0.000;2024-03-06T02:40:22;99606.38;;;8.87;100.00
76858;BME280;65830;0.000;0.000;2024-03-06T02:42:47;99607.56;;;8.94;100.00
76858;BME280;65830;0.000;0.000;2024-03-06T02:45:13;99613.09;;;8.91;100.00
76858;BME280;65830;0.000;0.000;2024-03-06T02:47:39;99605.75;;;8.94;100.00
76858;BME280;65830;0.000;0.000;2024-03-06T02:50:04;99609.50;;;8.92;100.00
76858;BME280;65830;0.000;0.000;2024-03-06T02:52:30;99611.97;;;8.93;100.00
76858;BME280;65830;0.000;0.000;2024-03-06T02:54:56;99615.47;;;8.73;100.00
76858;BME280;65830;0.000;0.000;2024-03-06T02:57:21;99614.13;;;8.79;100.00
76858;BME280;65830;0.000;0.000;2024-03-06T02:59:47;99610.50;;;8.80;100.00
76858;BME280;65830;0.000;0.000;2024-03-06T03:02:12;99615.78;;;8.80;100.00
76858;BME280;65830;0.000;0.000;2024-03-06T03:04:38;99615.63;;;8.92;100.00
76858;BME280;65830;0.000;0.000;2024-03-06T03:07:03;99613.22;;;8.89;100.00
76858;BME280;65830;0.000;0.000;2024-03-06T03:09:30;99618.75;;;9.07;100.00
76858;BME280;65830;0.000;0.000;2024-03-06T03:11:56;99616.28;;;9.15;100.00
76858;BME280;65830;0.000;0.000;2024-03-06T03:14:22;99620.56;;;9.28;100.00
76858;BME280;65830;0.000;0.000;2024-03-06T03:16:48;99623.91;;;9.30;100.00
76858;BME280;65830;0.000;0.000;2024-03-06T03:19:13;99625.28;;;9.24;100.00
76858;BME280;65830;0.000;0.000;2024-03-06T03:21:42;99623.75;;;9.22;100.00
76858;BME280;65830;0.000;0.000;2024-03-06T03:24:08;99625.84;;;9.28;100.00
76858;BME280;65830;0.000;0.000;2024-03-06T03:26:33;99618.44;;;9.22;100.00
76858;BME280;65830;0.000;0.000;2024-03-06T03:28:58;99632.16;;;9.06;100.00
76858;BME280;65830;0.000;0.000;2024-03-06T03:31:24;99623.47;;;9.04;100.00
76858;BME280;65830;0.000;0.000;2024-03-06T03:33:50;99625.75;;;9.08;100.00
76858;BME280;65830;0.000;0.000;2024-03-06T03:36:15;99626.88;;;9.15;100.00
76858;BME280;65830;0.000;0.000;2024-03-06T03:38:41;99628.88;;;9.23;100.00
76858;BME280;65830;0.000;0.000;2024-03-06T03:41:07;99631.56;;;9.02;100.00
76858;BME280;65830;0.000;0.000;2024-03-06T03:43:32;99624.56;;;9.01;100.00
76858;BME280;65830;0.000;0.000;2024-03-06T03:45:58;99626.44;;;8.89;100.00
76858;BME280;65830;0.000;0.000;2024-03-06T03:48:24;99620.91;;;8.92;100.00
76858;BME280;65830;0.000;0.000;2024-03-06T03:50:50;99627.69;;;9.06;100.00
76858;BME280;65830;0.000;0.000;2024-03-06T03:53:15;99629.69;;;9.14;100.00
76858;BME280;65830;0.000;0.000;2024-03-06T03:55:41;99635.03;;;9.03;100.00
76858;BME280;65830;0.000;0.000;2024-03-06T03:58:06;99631.34;;;9.15;100.00
76858;BME280;65830;0.000;0.000;2024-03-06T04:00:32;99630.63;;;9.13;100.00
76858;BME280;65830;0.000;0.000;2024-03-06T04:02:58;99639.69;;;8.89;100.00
76858;BME280;65830;0.000;0.000;2024-03-06T04:05:23;99644.59;;;8.94;100.00
76858;BME280;65830;0.000;0.000;2024-03-06T04:07:49;99655.66;;;8.88;100.00
76858;BME280;65830;0.000;0.000;2024-03-06T04:10:14;99649.91;;;8.94;100.00
76858;BME280;65830;0.000;0.000;2024-03-06T04:12:39;99646.34;;;9.05;100.00
76858;BME280;65830;0.000;0.000;2024-03-06T04:15:05;99648.84;;;9.06;100.00
76858;BME280;65830;0.000;0.000;2024-03-06T04:17:31;99657.44;;;8.99;100.00
76858;BME280;65830;0.000;0.000;2024-03-06T04:19:56;99662.59;;;8.79;100.00
76858;BME280;65830;0.000;0.000;2024-03-06T04:22:22;99659.53;;;8.63;100.00
76858;BME280;65830;0.000;0.000;2024-03-06T04:24:47;99657.81;;;8.73;100.00
76858;BME280;65830;0.000;0.000;2024-03-06T04:27:13;99667.38;;;8.85;100.00
76858;BME280;65830;0.000;0.000;2024-03-06T04:29:38;99665.19;;;8.90;100.00
76858;BME280;65830;0.000;0.000;2024-03-06T04:32:04;99663.50;;;8.89;100.00
76858;BME280;65830;0.000;0.000;2024-03-06T04:34:29;99666.53;;;8.85;100.00
76858;BME280;65830;0.000;0.000;2024-03-06T04:36:55;99657.88;;;8.83;100.00
76858;BME280;65830;0.000;0.000;2024-03-06T04:39:21;99663.75;;;8.54;100.00
76858;BME280;65830;0.000;0.000;2024-03-06T04:41:47;99669.31;;;8.51;100.00
76858;BME280;65830;0.000;0.000;2024-03-06T04:44:12;99671.41;;;8.68;100.00
76858;BME280;65830;0.000;0.000;2024-03-06T04:46:38;99679.06;;;8.50;100.00
76858;BME280;65830;0.000;0.000;2024-03-06T04:49:03;99670.75;;;8.55;100.00
76858;BME280;65830;0.000;0.000;2024-03-06T04:51:29;99675.50;;;8.72;100.00
76858;BME280;65830;0.000;0.000;2024-03-06T04:53:54;99680.09;;;8.59;100.00
76858;BME280;65830;0.000;0.000;2024-03-06T04:56:22;99684.00;;;8.44;100.00
76858;BME280;65830;0.000;0.000;2024-03-06T04:58:48;99678.91;;;8.52;100.00
76858;BME280;65830;0.000;0.000;2024-03-06T05:01:13;99689.03;;;8.35;100.00
76858;BME280;65830;0.000;0.000;2024-03-06T05:03:39;99691.00;;;8.11;100.00
76858;BME280;65830;0.000;0.000;2024-03-06T05:06:05;99692.22;;;8.07;100.00
76858;BME280;65830;0.000;0.000;2024-03-06T05:08:30;99689.34;;;7.87;100.00
76858;BME280;65830;0.000;0.000;2024-03-06T05:10:56;99693.19;;;7.72;100.00
76858;BME280;65830;0.000;0.000;2024-03-06T05:13:22;99696.69;;;7.95;100.00
76858;BME280;65830;0.000;0.000;2024-03-06T05:15:47;99700.75;;;7.88;100.00
76858;BME280;65830;0.000;0.000;2024-03-06T05:18:13;99695.34;;;7.78;100.00
76858;BME280;65830;0.000;0.000;2024-03-06T05:20:38;99701.97;;;7.95;100.00
76858;BME280;65830;0.000;0.000;2024-03-06T05:23:04;99705.09;;;7.89;100.00
76858;BME280;65830;0.000;0.000;2024-03-06T05:25:29;99718.63;;;7.84;100.00
76858;BME280;65830;0.000;0.000;2024-03-06T05:27:55;99720.16;;;7.53;100.00
76858;BME280;65830;0.000;0.000;2024-03-06T05:30:20;99723.28;;;7.47;100.00
76858;BME280;65830;0.000;0.000;2024-03-06T05:32:46;99720.97;;;7.31;100.00
76858;BME280;65830;0.000;0.000;2024-03-06T05:35:12;99734.41;;;7.28;100.00
76858;BME280;65830;0.000;0.000;2024-03-06T05:37:38;99737.88;;;7.28;100.00
76858;BME280;65830;0.000;0.000;2024-03-06T05:40:03;99730.38;;;7.46;100.00
76858;BME280;65830;0.000;0.000;2024-03-06T05:42:32;99734.13;;;7.66;100.00
76858;BME280;65830;0.000;0.000;2024-03-06T05:44:58;99735.78;;;7.56;100.00
76858;BME280;65830;0.000;0.000;2024-03-06T05:47:31;99734.22;;;7.53;100.00
76858;BME280;65830;0.000;0.000;2024-03-06T05:49:57;99736.63;;;7.56;100.00
76858;BME280;65830;0.000;0.000;2024-03-06T05:52:22;99734.44;;;7.50;100.00
76858;BME280;65830;0.000;0.000;2024-03-06T05:54:48;99731.81;;;7.50;100.00
76858;BME280;65830;0.000;0.000;2024-03-06T05:57:13;99731.44;;;7.55;100.00
76858;BME280;65830;0.000;0.000;2024-03-06T05:59:39;99739.50;;;7.65;100.00
76858;BME280;65830;0.000;0.000;2024-03-06T06:02:05;99744.78;;;7.65;100.00
76858;BME280;65830;0.000;0.000;2024-03-06T06:04:31;99749.63;;;7.82;100.00
76858;BME280;65830;0.000;0.000;2024-03-06T06:06:56;99756.81;;;8.14;100.00
76858;BME280;65830;0.000;0.000;2024-03-06T06:09:22;99756.44;;;8.30;100.00
76858;BME280;65830;0.000;0.000;2024-03-06T06:11:47;99752.00;;;8.53;100.00
76858;BME280;65830;0.000;0.000;2024-03-06T06:14:14;99758.16;;;8.20;100.00
76858;BME280;65830;0.000;0.000;2024-03-06T06:16:40;99748.75;;;8.38;100.00
76858;BME280;65830;0.000;0.000;2024-03-06T06:19:08;99748.75;;;8.38;100.00
76858;BME280;65830;0.000;0.000;2024-03-06T06:21:34;99749.16;;;8.45;100.00
76858;BME280;65830;0.000;0.000;2024-03-06T06:24:04;99758.31;;;8.73;98.72
76858;BME280;65830;0.000;0.000;2024-03-06T06:26:29;99760.53;;;8.57;97.29
76858;BME280;65830;0.000;0.000;2024-03-06T06:28:56;99759.84;;;8.87;97.15
76858;BME280;65830;0.000;0.000;2024-03-06T06:31:22;99771.16;;;8.89;94.94
76858;BME280;65830;0.000;0.000;2024-03-06T06:33:47;99756.06;;;8.68;94.60
76858;BME280;65830;0.000;0.000;2024-03-06T06:36:13;99768.13;;;8.27;97.01
76858;BME280;65830;0.000;0.000;2024-03-06T06:38:38;99760.06;;;8.29;97.35
76858;BME280;65830;0.000;0.000;2024-03-06T06:41:04;99762.59;;;8.53;95.67
76858;BME280;65830;0.000;0.000;2024-03-06T06:43:29;99761.84;;;8.62;95.23
76858;BME280;65830;0.000;0.000;2024-03-06T06:45:55;99769.56;;;8.31;97.55
76858;BME280;65830;0.000;0.000;2024-03-06T06:48:21;99770.41;;;8.54;95.94
76858;BME280;65830;0.000;0.000;2024-03-06T06:50:46;99770.25;;;8.67;94.08
76858;BME280;65830;0.000;0.000;2024-03-06T06:53:13;99759.56;;;9.01;92.62
76858;BME280;65830;0.000;0.000;2024-03-06T06:55:39;99769.44;;;8.88;92.16
76858;BME280;65830;0.000;0.000;2024-03-06T06:58:04;99761.25;;;9.02;92.37
76858;BME280;65830;0.000;0.000;2024-03-06T07:00:30;99770.41;;;9.19;91.52
76858;BME280;65830;0.000;0.000;2024-03-06T07:02:55;99768.03;;;9.37;91.60
76858;BME280;65830;0.000;0.000;2024-03-06T07:05:23;99774.19;;;9.80;89.85
76858;BME280;65830;0.000;0.000;2024-03-06T07:07:49;99781.75;;;9.63;87.83
76858;BME280;65830;0.000;0.000;2024-03-06T07:10:14;99778.66;;;9.79;88.80
76858;BME280;65830;0.000;0.000;2024-03-06T07:12:40;99776.50;;;9.73;89.53
76858;BME280;65830;0.000;0.000;2024-03-06T07:15:05;99776.59;;;9.92;88.07
76858;BME280;65830;0.000;0.000;2024-03-06T07:17:31;99769.53;;;10.03;87.05
76858;BME280;65830;0.000;0.000;2024-03-06T07:19:57;99770.06;;;10.27;86.09
76858;BME280;65830;0.000;0.000;2024-03-06T07:22:23;99779.06;;;10.05;86.57
76858;BME280;65830;0.000;0.000;2024-03-06T07:24:48;99774.72;;;10.04;88.46
76858;BME280;65830;0.000;0.000;2024-03-06T07:27:14;99776.44;;;10.46;86.68
76858;BME280;65830;0.000;0.000;2024-03-06T07:29:39;99780.03;;;10.35;87.37
76858;BME280;65830;0.000;0.000;2024-03-06T07:32:05;99779.44;;;10.01;90.38
76858;BME280;65830;0.000;0.000;2024-03-06T07:34:31;99779.38;;;10.43;88.31
76858;BME280;65830;0.000;0.000;2024-03-06T07:36:56;99773.69;;;10.57;86.53
76858;BME280;65830;0.000;0.000;2024-03-06T07:39:23;99773.53;;;10.18;90.72
76858;BME280;65830;0.000;0.000;2024-03-06T07:41:49;99777.72;;;10.51;91.71
76858;BME280;65830;0.000;0.000;2024-03-06T07:44:14;99773.16;;;10.73;87.81
76858;BME280;65830;0.000;0.000;2024-03-06T07:46:40;99770.38;;;11.04;84.77
76858;BME280;65830;0.000;0.000;2024-03-06T07:49:05;99768.16;;;10.99;83.92
76858;BME280;65830;0.000;0.000;2024-03-06T07:51:34;99772.31;;;10.92;85.60
76858;BME280;65830;0.000;0.000;2024-03-06T07:54:00;99771.09;;;11.16;85.06
76858;BME280;65830;0.000;0.000;2024-03-06T07:56:26;99774.72;;;11.34;82.70
76858;BME280;65830;0.000;0.000;2024-03-06T07:58:52;99778.34;;;11.43;80.95
76858;BME280;65830;0.000;0.000;2024-03-06T08:01:19;99772.28;;;11.70;78.06
76858;BME280;65830;0.000;0.000;2024-03-06T08:03:44;99767.44;;;11.56;78.16
76858;BME280;65830;0.000;0.000;2024-03-06T08:06:10;99763.66;;;11.48;78.96
76858;BME280;65830;0.000;0.000;2024-03-06T08:08:36;99766.06;;;11.32;79.67
76858;BME280;65830;0.000;0.000;2024-03-06T08:11:02;99767.72;;;11.52;78.62
76858;BME280;65830;0.000;0.000;2024-03-06T08:13:27;99766.91;;;11.23;79.70
76858;BME280;65830;0.000;0.000;2024-03-06T08:15:53;99774.97;;;11.50;78.15
76858;BME280;65830;0.000;0.000;2024-03-06T08:18:19;99770.47;;;11.70;76.48
76858;BME280;65830;0.000;0.000;2024-03-06T08:20:44;99768.91;;;11.87;75.35
76858;BME280;65830;0.000;0.000;2024-03-06T08:23:10;99765.59;;;11.66;77.21
76858;BME280;65830;0.000;0.000;2024-03-06T08:25:35;99771.28;;;11.81;76.85
76858;BME280;65830;0.000;0.000;2024-03-06T08:28:01;99768.47;;;12.02;75.83
76858;BME280;65830;0.000;0.000;2024-03-06T08:30:28;99764.41;;;11.88;75.95
76858;BME280;65830;0.000;0.000;2024-03-06T08:32:55;99761.88;;;12.06;75.84
76858;BME280;65830;0.000;0.000;2024-03-06T08:35:21;99764.72;;;12.22;72.51
76858;BME280;65830;0.000;0.000;2024-03-06T08:37:48;99754.81;;;12.15;74.16
76858;BME280;65830;0.000;0.000;2024-03-06T08:40:15;99761.00;;;12.43;73.25
76858;BME280;65830;0.000;0.000;2024-03-06T08:42:48;99761.94;;;12.51;72.72
76858;BME280;65830;0.000;0.000;2024-03-06T08:45:14;99761.94;;;12.51;72.14
76858;BME280;65830;0.000;0.000;2024-03-06T08:47:40;99764.50;;;12.43;71.88
76858;BME280;65830;0.000;0.000;2024-03-06T08:50:06;99757.00;;;12.29;74.63
76858;BME280;65830;0.000;0.000;2024-03-06T08:52:33;99759.19;;;12.06;73.88
76858;BME280;65830;0.000;0.000;2024-03-06T08:55:00;99762.06;;;12.50;71.26
76858;BME280;65830;0.000;0.000;2024-03-06T08:57:26;99760.19;;;12.60;70.65
76858;BME280;65830;0.000;0.000;2024-03-06T08:59:53;99765.81;;;12.29;71.73
76858;BME280;65830;0.000;0.000;2024-03-06T09:02:19;99760.31;;;12.41;72.39
76858;BME280;65830;0.000;0.000;2024-03-06T09:04:45;99759.19;;;12.43;72.40
76858;BME280;65830;0.000;0.000;2024-03-06T09:07:11;99751.22;;;12.61;71.97
76858;BME280;65830;0.000;0.000;2024-03-06T09:09:37;99756.78;;;12.68;71.41
76858;BME280;65830;0.000;0.000;2024-03-06T09:12:06;99759.16;;;12.89;72.36
76858;BME280;65830;0.000;0.000;2024-03-06T09:14:32;99751.53;;;12.94;72.82
76858;BME280;65830;0.000;0.000;2024-03-06T09:16:58;99760.31;;;13.04;72.04
76858;BME280;65830;0.000;0.000;2024-03-06T09:19:24;99758.47;;;13.05;72.13
76858;BME280;65830;0.000;0.000;2024-03-06T09:21:49;99754.31;;;13.38;69.67
76858;BME280;65830;0.000;0.000;2024-03-06T09:24:18;99756.50;;;12.89;68.87
76858;BME280;65830;0.000;0.000;2024-03-06T09:26:47;99742.25;;;12.80;66.84
76858;BME280;65830;0.000;0.000;2024-03-06T09:29:13;99738.38;;;12.57;68.74
76858;BME280;65830;0.000;0.000;2024-03-06T09:31:38;99743.66;;;12.84;68.38
76858;BME280;65830;0.000;0.000;2024-03-06T09:34:04;99738.84;;;13.06;68.13
76858;BME280;65830;0.000;0.000;2024-03-06T09:36:29;99736.25;;;13.14;68.69
76858;BME280;65830;0.000;0.000;2024-03-06T09:38:55;99739.28;;;13.19;67.86
76858;BME280;65830;0.000;0.000;2024-03-06T09:41:21;99736.38;;;13.48;66.64
76858;BME280;65830;0.000;0.000;2024-03-06T09:43:47;99732.09;;;13.82;65.69
76858;BME280;65830;0.000;0.000;2024-03-06T09:46:12;99727.22;;;13.77;66.35
76858;BME280;65830;0.000;0.000;2024-03-06T09:48:40;99724.34;;;13.97;63.98
76858;BME280;65830;0.000;0.000;2024-03-06T09:51:10;99723.00;;;14.01;62.75
76858;BME280;65830;0.000;0.000;2024-03-06T09:53:37;99729.00;;;13.95;66.42
76858;BME280;65830;0.000;0.000;2024-03-06T09:56:04;99729.78;;;13.87;66.82
76858;BME280;65830;0.000;0.000;2024-03-06T09:58:31;99728.88;;;13.70;63.79
76858;BME280;65830;0.000;0.000;2024-03-06T10:00:58;99724.78;;;13.58;64.95
76858;BME280;65830;0.000;0.000;2024-03-06T10:03:25;99723.31;;;13.37;66.36
76858;BME280;65830;0.000;0.000;2024-03-06T10:05:51;99719.66;;;13.38;63.42
76858;BME280;65830;0.000;0.000;2024-03-06T10:08:16;99718.47;;;13.59;63.73
76858;BME280;65830;0.000;0.000;2024-03-06T10:10:42;99706.81;;;13.60;63.66
76858;BME280;65830;0.000;0.000;2024-03-06T10:13:08;99710.13;;;13.88;64.05
76858;BME280;65830;0.000;0.000;2024-03-06T10:15:34;99712.16;;;13.94;63.81
76858;BME280;65830;0.000;0.000;2024-03-06T10:18:16;99712.56;;;14.07;63.15
76858;BME280;65830;0.000;0.000;2024-03-06T10:20:44;99705.28;;;14.26;62.73
76858;BME280;65830;0.000;0.000;2024-03-06T10:23:10;99711.06;;;14.13;64.70
76858;BME280;65830;0.000;0.000;2024-03-06T10:25:36;99703.28;;;14.28;64.70
76858;BME280;65830;0.000;0.000;2024-03-06T10:28:11;99696.50;;;14.42;61.15
76858;BME280;65830;0.000;0.000;2024-03-06T10:30:41;99692.97;;;14.33;61.17
76858;BME280;65830;0.000;0.000;2024-03-06T10:33:11;99694.78;;;14.33;59.92
76858;BME280;65830;0.000;0.000;2024-03-06T10:35:37;99693.78;;;14.25;59.43
76858;BME280;65830;0.000;0.000;2024-03-06T10:38:04;99685.69;;;14.09;60.54
76858;BME280;65830;0.000;0.000;2024-03-06T10:40:31;99682.78;;;14.37;62.95
76858;BME280;65830;0.000;0.000;2024-03-06T10:42:58;99688.75;;;14.65;61.44
76858;BME280;65830;0.000;0.000;2024-03-06T10:45:25;99680.59;;;14.83;58.32
76858;BME280;65830;0.000;0.000;2024-03-06T10:47:52;99679.25;;;14.87;56.57
76858;BME280;65830;0.000;0.000;2024-03-06T10:50:18;99672.56;;;14.99;57.48
76858;BME280;65830;0.000;0.000;2024-03-06T10:52:45;99673.06;;;15.19;57.06
76858;BME280;65830;0.000;0.000;2024-03-06T10:55:12;99667.16;;;15.48;59.93
76858;BME280;65830;0.000;0.000;2024-03-06T10:57:37;99668.81;;;15.74;57.67
76858;BME280;65830;0.000;0.000;2024-03-06T11:00:05;99663.88;;;15.94;54.88
76858;BME280;65830;0.000;0.000;2024-03-06T11:02:31;99663.09;;;15.77;55.30
76858;BME280;65830;0.000;0.000;2024-03-06T11:04:57;99654.34;;;16.00;56.66
76858;BME280;65830;0.000;0.000;2024-03-06T11:07:23;99649.09;;;16.38;55.86
76858;BME280;65830;0.000;0.000;2024-03-06T11:09:49;99651.50;;;16.79;55.69
76858;BME280;65830;0.000;0.000;2024-03-06T11:12:32;99640.56;;;16.88;52.39
76858;BME280;65830;0.000;0.000;2024-03-06T11:14:57;99647.63;;;17.42;52.33
76858;BME280;65830;0.000;0.000;2024-03-06T11:17:25;99643.34;;;17.33;50.52
76858;BME280;65830;0.000;0.000;2024-03-06T11:25:43;99637.13;;;18.22;48.04
76858;BME280;65830;0.000;0.000;2024-03-06T11:28:04;99633.25;;;18.46;48.56
76858;BME280;65830;0.000;0.000;2024-03-06T11:30:30;99632.84;;;18.49;47.42
76858;BME280;65830;0.000;0.000;2024-03-06T11:32:59;99628.78;;;18.53;49.93
76858;BME280;65830;0.000;0.000;2024-03-06T11:35:29;99632.78;;;18.42;50.38
76858;BME280;65830;0.000;0.000;2024-03-06T11:37:54;99630.06;;;18.36;50.51
76858;BME280;65830;0.000;0.000;2024-03-06T11:40:23;99629.38;;;17.82;52.01
76858;BME280;65830;0.000;0.000;2024-03-06T11:42:52;99618.66;;;17.67;51.10
76858;BME280;65830;0.000;0.000;2024-03-06T11:45:18;99629.09;;;17.77;49.08
76858;BME280;65830;0.000;0.000;2024-03-06T11:48:02;99624.56;;;17.33;50.10
76858;BME280;65830;0.000;0.000;2024-03-06T11:50:28;99623.84;;;17.39;51.85
76858;BME280;65830;0.000;0.000;2024-03-06T11:52:57;99621.25;;;17.31;53.33
76858;BME280;65830;0.000;0.000;2024-03-06T11:55:23;99622.63;;;17.27;54.31
76858;BME280;65830;0.000;0.000;2024-03-06T11:57:50;99612.25;;;17.09;56.02
76858;BME280;65830;0.000;0.000;2024-03-06T12:00:16;99614.09;;;17.09;55.59
76858;BME280;65830;0.000;0.000;2024-03-06T12:02:42;99612.59;;;16.91;55.53
76858;BME280;65830;0.000;0.000;2024-03-06T12:05:07;99615.59;;;16.42;57.58
76858;BME280;65830;0.000;0.000;2024-03-06T12:07:45;99617.19;;;16.28;57.52
76858;BME280;65830;0.000;0.000;2024-03-06T12:10:10;99618.47;;;16.09;58.77
76858;BME280;65830;0.000;0.000;2024-03-06T12:12:36;99618.28;;;15.79;60.15
76858;BME280;65830;0.000;0.000;2024-03-06T12:15:03;99608.50;;;15.95;59.52
76858;BME280;65830;0.000;0.000;2024-03-06T12:17:29;99615.84;;;16.01;59.50
76858;BME280;65830;0.000;0.000;2024-03-06T12:19:56;99621.28;;;15.84;59.44
76858;BME280;65830;0.000;0.000;2024-03-06T12:22:24;99616.25;;;15.81;59.71
76858;BME280;65830;0.000;0.000;2024-03-06T12:25:00;99614.00;;;15.54;60.05
76858;BME280;65830;0.000;0.000;2024-03-06T12:27:26;99608.59;;;16.87;56.74
76858;BME280;65830;0.000;0.000;2024-03-06T12:29:52;99612.66;;;18.96;50.14
76858;BME280;65830;0.000;0.000;2024-03-06T12:32:18;99604.56;;;21.29;45.36
76858;BME280;65830;0.000;0.000;2024-03-06T12:34:43;99607.22;;;21.63;44.57
76858;BME280;65830;0.000;0.000;2024-03-06T12:37:09;99605.56;;;23.09;40.19
76858;BME280;65830;0.000;0.000;2024-03-06T12:39:36;99604.28;;;22.86;40.71
76858;BME280;65830;0.000;0.000;2024-03-06T12:42:01;99619.47;;;24.11;38.18
76858;BME280;65830;0.000;0.000;2024-03-06T12:44:27;99614.97;;;24.35;39.21
76858;BME280;65830;0.000;0.000;2024-03-06T12:46:52;99616.25;;;23.84;37.98
76858;BME280;65830;0.000;0.000;2024-03-06T12:49:18;99610.72;;;25.24;35.12
76858;BME280;65830;0.000;0.000;2024-03-06T12:51:43;99607.81;;;25.07;34.63
76858;BME280;65830;0.000;0.000;2024-03-06T12:54:09;99608.69;;;24.53;36.10
76858;BME280;65830;0.000;0.000;2024-03-06T12:56:35;99610.06;;;23.95;38.42
76858;BME280;65830;0.000;0.000;2024-03-06T12:59:01;99614.34;;;23.04;39.25
76858;BME280;65830;0.000;0.000;2024-03-06T13:01:26;99616.19;;;21.43;42.84
76858;BME280;65830;0.000;0.000;2024-03-06T13:03:52;99613.72;;;21.01;43.10
76858;BME280;65830;0.000;0.000;2024-03-06T13:06:17;99618.16;;;22.33;39.98
76858;BME280;65830;0.000;0.000;2024-03-06T13:08:43;99610.63;;;22.98;39.65
76858;BME280;65830;0.000;0.000;2024-03-06T13:11:08;99613.00;;;22.88;40.09
76858;BME280;65830;0.000;0.000;2024-03-06T13:13:34;99616.59;;;22.75;39.75